createdAt,value
2023-04-03T00:02:41.816Z,62.40
2023-04-03T00:07:43.645Z,62.26
2023-04-03T00:12:45.301Z,63.15
2023-04-03T00:17:46.992Z,63.27
2023-04-03T00:22:48.604Z,62.65
2023-04-03T00:27:50.307Z,63.21
2023-04-03T00:32:53.769Z,63.26
2023-04-03T00:37:56.556Z,62.93
2023-04-03T00:43:00.431Z,63.28
2023-04-03T00:48:06.695Z,63.25
2023-04-03T00:53:11.264Z,62.41
2023-04-03T00:58:13.252Z,63.24
2023-04-03T01:03:14.867Z,62.24
2023-04-03T01:08:16.644Z,62.82
2023-04-03T01:13:22.033Z,62.71
2023-04-03T01:18:27.366Z,62.00
2023-04-03T01:23:41.180Z,62.18
2023-04-03T01:28:42.958Z,62.69
2023-04-03T01:33:44.833Z,62.55
2023-04-03T01:38:46.713Z,62.50
2023-04-03T01:43:49.479Z,61.86
2023-04-03T01:48:51.140Z,61.29
2023-04-03T01:53:52.957Z,62.38
2023-04-03T01:58:54.635Z,61.80
2023-04-03T02:03:56.316Z,60.89
2023-04-03T02:08:58.047Z,61.45
2023-04-03T02:13:59.636Z,62.26
2023-04-03T02:19:01.461Z,61.47
2023-04-03T02:24:05.215Z,61.51
2023-04-03T02:29:06.878Z,61.96
2023-04-03T02:34:10.491Z,62.08
2023-04-03T02:39:12.519Z,61.51
2023-04-03T02:44:14.500Z,62.18
2023-04-03T02:49:16.506Z,62.71
2023-04-03T02:54:18.241Z,63.74
2023-04-03T02:59:24.615Z,63.53
2023-04-03T03:04:26.377Z,62.67
2023-04-03T03:09:28.172Z,64.59
2023-04-03T03:14:29.895Z,64.20
2023-04-03T03:19:31.507Z,64.70
2023-04-03T03:24:33.195Z,65.17
2023-04-03T03:29:34.829Z,65.80
2023-04-03T03:34:38.304Z,66.11
2023-04-03T03:39:41.114Z,66.56
2023-04-03T03:44:42.804Z,66.59
2023-04-03T03:49:44.523Z,67.57
2023-04-03T03:54:46.538Z,66.51
2023-04-03T03:59:49.710Z,67.42
2023-04-03T04:04:53.567Z,67.35
2023-04-03T04:09:55.676Z,67.40
2023-04-03T04:14:57.539Z,68.29
2023-04-03T04:20:00.096Z,68.52
2023-04-03T04:25:02.289Z,70.15
2023-04-03T04:30:05.417Z,70.85
2023-04-03T04:35:08.519Z,70.54
2023-04-03T04:40:14.715Z,70.64
2023-04-03T04:45:16.822Z,71.02
2023-04-03T04:50:20.828Z,71.82
2023-04-03T04:55:22.659Z,71.75
2023-04-03T05:00:25.924Z,72.25
2023-04-03T05:05:27.670Z,71.41
2023-04-03T05:10:29.717Z,72.63
2023-04-03T05:15:31.691Z,71.93
2023-04-03T05:20:33.925Z,71.67
2023-04-03T05:25:35.911Z,72.63
2023-04-03T05:30:38.490Z,73.18
2023-04-03T05:35:42.260Z,72.16
2023-04-03T05:40:47.162Z,71.56
2023-04-03T05:45:49.255Z,71.83
2023-04-03T05:50:51.597Z,71.02
2023-04-03T05:55:58.537Z,70.41
2023-04-03T06:01:01.562Z,70.64
2023-04-03T06:06:05.378Z,70.09
2023-04-03T06:11:07.156Z,68.91
2023-04-03T06:16:12.644Z,69.53
2023-04-03T06:21:14.928Z,69.43
2023-04-03T06:26:16.628Z,68.47
2023-04-03T06:31:18.325Z,69.28
2023-04-03T06:36:21.651Z,69.19
2023-04-03T06:41:23.493Z,67.68
2023-04-03T06:46:27.093Z,69.39
2023-04-03T06:51:30.102Z,68.09
2023-04-03T06:56:31.811Z,69.37
2023-04-03T07:01:33.710Z,67.93
2023-04-03T07:06:35.977Z,67.80
2023-04-03T07:11:37.678Z,68.75
2023-04-03T07:16:41.100Z,68.03
2023-04-03T07:21:44.428Z,66.78
2023-04-03T07:26:46.419Z,67.01
2023-04-03T07:31:48.672Z,67.51
2023-04-03T07:36:50.372Z,68.48
2023-04-03T07:41:52.133Z,67.34
2023-04-03T07:46:53.790Z,67.34
2023-04-03T07:51:56.600Z,67.74
2023-04-03T07:56:58.676Z,67.03
2023-04-03T08:02:00.613Z,66.33
2023-04-03T08:07:02.446Z,65.34
2023-04-03T08:12:04.192Z,66.38
2023-04-03T08:17:06.472Z,66.50
2023-04-03T08:22:08.340Z,66.23
2023-04-03T08:27:09.999Z,65.11
2023-04-03T08:32:11.906Z,65.95
2023-04-03T08:37:13.538Z,65.16
2023-04-03T08:42:21.126Z,64.96
2023-04-03T08:47:27.412Z,64.47
2023-04-03T08:52:50.105Z,63.00
2023-04-03T08:58:05.340Z,63.31
2023-04-03T09:03:13.764Z,63.16
2023-04-03T09:08:24.001Z,62.81
2023-04-03T09:13:39.493Z,62.91
2023-04-03T09:18:44.288Z,61.67
2023-04-03T09:23:49.306Z,60.86
2023-04-03T09:28:51.451Z,61.91
2023-04-03T09:34:01.581Z,59.85
2023-04-03T09:39:08.995Z,60.85
2023-04-03T09:44:22.371Z,60.85
2023-04-03T09:49:24.009Z,58.79
2023-04-03T09:54:41.378Z,57.87
2023-04-03T09:59:49.098Z,56.05
2023-04-03T10:04:58.741Z,54.81
2023-04-03T10:10:16.163Z,55.53
2023-04-03T10:15:22.495Z,57.61
2023-04-03T10:20:48.330Z,55.93
2023-04-03T10:26:13.997Z,54.33
2023-04-03T10:31:27.768Z,53.42
2023-04-03T10:36:51.525Z,50.84
2023-04-03T10:41:58.048Z,50.40
2023-04-03T10:47:25.653Z,49.18
2023-04-03T10:52:47.700Z,48.14
2023-04-03T10:57:51.286Z,48.93
2023-04-03T11:02:58.874Z,46.22
2023-04-03T11:08:06.356Z,46.81
2023-04-03T11:13:10.380Z,46.69
2023-04-03T11:18:25.109Z,47.98
2023-04-03T11:23:30.388Z,46.41
2023-04-03T11:28:38.144Z,46.22
2023-04-03T11:33:58.224Z,45.69
2023-04-03T11:39:18.011Z,43.93
2023-04-03T11:44:37.644Z,44.34
2023-04-03T11:50:04.544Z,44.76
2023-04-03T11:55:24.212Z,47.77
2023-04-03T12:00:44.336Z,47.78
2023-04-03T12:05:45.943Z,48.00
2023-04-03T12:11:15.481Z,47.03
2023-04-03T12:16:40.147Z,46.55
2023-04-03T12:21:47.705Z,46.27
2023-04-03T12:27:04.096Z,45.95
2023-04-03T12:32:06.201Z,45.21
2023-04-03T12:37:29.247Z,45.20
2023-04-03T12:42:57.918Z,45.55
2023-04-03T12:48:03.592Z,46.93
2023-04-03T12:53:07.616Z,47.19
2023-04-03T12:58:27.592Z,46.94
2023-04-03T13:03:29.678Z,47.60
2023-04-03T13:08:31.727Z,48.82
2023-04-03T13:13:33.466Z,49.02
2023-04-03T13:18:36.351Z,48.03
2023-04-03T13:23:40.765Z,48.23
2023-04-03T13:28:42.832Z,46.28
2023-04-03T13:33:57.589Z,47.41
2023-04-03T13:39:19.118Z,47.64
2023-04-03T13:44:23.441Z,48.27
2023-04-03T13:49:35.189Z,47.51
2023-04-03T13:54:39.480Z,47.99
2023-04-03T13:59:41.219Z,46.58
2023-04-03T14:04:45.885Z,47.74
2023-04-03T14:09:47.544Z,47.64
2023-04-03T14:14:49.231Z,47.97
2023-04-03T14:19:52.499Z,47.01
2023-04-03T14:24:54.230Z,47.05
2023-04-03T14:29:59.135Z,46.14
2023-04-03T14:35:01.560Z,46.92
2023-04-03T14:40:09.559Z,47.14
2023-04-03T14:45:12.982Z,48.28
2023-04-03T14:50:18.428Z,48.01
2023-04-03T14:55:22.357Z,47.76
2023-04-03T15:00:24.214Z,47.30
2023-04-03T15:05:26.257Z,46.03
2023-04-03T15:10:29.977Z,47.30
2023-04-03T15:15:32.073Z,46.35
2023-04-03T15:20:34.653Z,46.48
2023-04-03T15:25:36.297Z,46.30
2023-04-03T15:30:40.847Z,46.33
2023-04-03T15:35:43.111Z,45.63
2023-04-03T15:40:44.917Z,46.18
2023-04-03T15:45:46.654Z,46.56
2023-04-03T15:50:48.678Z,46.16
2023-04-03T15:55:51.233Z,46.06
2023-04-03T16:00:53.304Z,46.98
2023-04-03T16:05:55.051Z,48.04
2023-04-03T16:10:56.658Z,47.86
2023-04-03T16:15:58.297Z,47.87
2023-04-03T16:21:00.043Z,48.31
2023-04-03T16:26:01.734Z,48.08
2023-04-03T16:31:03.851Z,49.04
2023-04-03T16:36:06.210Z,48.49
2023-04-03T16:41:07.835Z,47.89
2023-04-03T16:46:09.520Z,48.64
2023-04-03T16:51:11.179Z,48.95
2023-04-03T16:56:12.782Z,48.21
2023-04-03T17:01:16.716Z,47.65
2023-04-03T17:06:20.427Z,47.89
2023-04-03T17:11:22.218Z,47.69
2023-04-03T17:16:24.679Z,47.97
2023-04-03T17:21:26.565Z,47.77
2023-04-03T17:26:28.348Z,48.50
2023-04-03T17:31:30.038Z,48.26
2023-04-03T17:36:33.483Z,48.52
2023-04-03T17:41:35.324Z,49.68
2023-04-03T17:46:36.952Z,48.79
2023-04-03T17:51:38.605Z,48.69
2023-04-03T17:56:41.728Z,48.38
2023-04-03T18:01:45.189Z,49.28
2023-04-03T18:06:48.869Z,49.21
2023-04-03T18:11:51.496Z,49.39
2023-04-03T18:16:53.268Z,49.43
2023-04-03T18:22:00.995Z,49.43
2023-04-03T18:27:06.269Z,49.69
2023-04-03T18:32:09.085Z,49.74
2023-04-03T18:37:10.840Z,50.33
2023-04-03T18:42:18.244Z,50.44
2023-04-03T18:47:19.994Z,50.02
2023-04-03T18:52:21.802Z,50.08
2023-04-03T18:57:24.438Z,50.41
2023-04-03T19:02:26.968Z,50.91
2023-04-03T19:07:28.726Z,51.01
2023-04-03T19:12:30.522Z,51.81
2023-04-03T19:17:32.684Z,51.90
2023-04-03T19:22:34.419Z,51.36
2023-04-03T19:27:36.523Z,51.96
2023-04-03T19:32:38.227Z,51.71
2023-04-03T19:37:39.881Z,51.87
2023-04-03T19:42:42.979Z,51.78
2023-04-03T19:47:45.110Z,51.73
2023-04-03T19:52:46.755Z,52.03
2023-04-03T19:57:48.451Z,51.51
2023-04-03T20:02:50.818Z,51.38
2023-04-03T20:07:52.634Z,50.95
2023-04-03T20:12:54.245Z,51.80
2023-04-03T20:17:56.004Z,52.27
2023-04-03T20:22:59.241Z,52.82
2023-04-03T20:28:00.868Z,52.94
2023-04-03T20:33:03.934Z,53.88
2023-04-03T20:38:07.190Z,53.80
2023-04-03T20:43:09.208Z,54.47
2023-04-03T20:48:13.096Z,54.70
2023-04-03T20:53:17.899Z,56.15
2023-04-03T20:58:19.844Z,56.17
2023-04-03T21:03:26.627Z,57.14
2023-04-03T21:09:05.868Z,57.96
2023-04-03T21:14:45.910Z,58.89
2023-04-03T21:19:48.720Z,59.89
2023-04-03T21:24:50.650Z,60.24
2023-04-03T21:29:52.342Z,60.64
2023-04-03T21:34:53.990Z,61.37
2023-04-03T21:39:55.601Z,61.45
2023-04-03T21:44:58.255Z,62.09
2023-04-03T21:49:59.839Z,62.94
2023-04-03T21:55:01.631Z,63.90
2023-04-03T22:00:05.026Z,63.87
2023-04-03T22:05:07.410Z,64.21
2023-04-03T22:10:09.003Z,64.46
2023-04-03T22:15:10.725Z,65.15
2023-04-03T22:20:12.337Z,65.46
2023-04-03T22:25:13.941Z,65.35
2023-04-03T22:30:15.505Z,64.46
2023-04-03T22:35:17.087Z,64.68
2023-04-03T22:40:18.737Z,65.77
2023-04-03T22:45:20.627Z,65.66
2023-04-03T22:50:22.473Z,65.86
2023-04-03T22:55:24.977Z,65.68
2023-04-03T23:00:28.061Z,65.08
2023-04-03T23:05:30.961Z,66.25
2023-04-03T23:10:32.552Z,65.15
2023-04-03T23:15:34.146Z,66.22
2023-04-03T23:20:35.753Z,65.16
2023-04-03T23:25:37.759Z,66.61
2023-04-03T23:30:39.472Z,66.38
2023-04-03T23:35:46.531Z,66.00
2023-04-03T23:40:48.252Z,67.19
2023-04-03T23:45:49.854Z,67.02
2023-04-03T23:50:51.918Z,67.31
2023-04-03T23:55:53.534Z,66.86
